sensor_id;sensor_type;location;lat;lon;timestamp;temperature;humidity
1453;DHT22;720;47.738;7.998;2023-05-29T00:01:35;13.00;67.60
1453;DHT22;720;47.738;7.998;2023-05-29T00:04:01;13.00;67.90
1453;DHT22;720;47.738;7.998;2023-05-29T00:06:27;12.90;68.90
1453;DHT22;720;47.738;7.998;2023-05-29T00:08:52;12.90;68.10
1453;DHT22;720;47.738;7.998;2023-05-29T00:11:18;12.90;68.80
1453;DHT22;720;47.738;7.998;2023-05-29T00:13:44;12.90;68.80
1453;DHT22;720;47.738;7.998;2023-05-29T00:16:09;12.80;69.70
1453;DHT22;720;47.738;7.998;2023-05-29T00:18:36;12.70;70.30
1453;DHT22;720;47.738;7.998;2023-05-29T00:21:02;12.70;71.80
1453;DHT22;720;47.738;7.998;2023-05-29T00:23:27;12.60;72.60
1453;DHT22;720;47.738;7.998;2023-05-29T00:25:53;12.50;73.10
1453;DHT22;720;47.738;7.998;2023-05-29T00:28:19;12.50;72.30
1453;DHT22;720;47.738;7.998;2023-05-29T00:30:44;12.40;72.60
1453;DHT22;720;47.738;7.998;2023-05-29T00:33:10;12.40;71.30
1453;DHT22;720;47.738;7.998;2023-05-29T00:35:36;12.40;69.90
1453;DHT22;720;47.738;7.998;2023-05-29T00:38:02;12.40;69.70
1453;DHT22;720;47.738;7.998;2023-05-29T00:40:27;12.50;70.10
1453;DHT22;720;47.738;7.998;2023-05-29T00:42:53;12.40;70.40
1453;DHT22;720;47.738;7.998;2023-05-29T00:45:19;12.50;70.80
1453;DHT22;720;47.738;7.998;2023-05-29T00:47:45;12.60;71.70
1453;DHT22;720;47.738;7.998;2023-05-29T00:50:12;12.60;72.80
1453;DHT22;720;47.738;7.998;2023-05-29T00:52:40;12.50;72.90
1453;DHT22;720;47.738;7.998;2023-05-29T00:55:07;12.40;73.30
1453;DHT22;720;47.738;7.998;2023-05-29T00:57:35;12.40;74.00
1453;DHT22;720;47.738;7.998;2023-05-29T01:00:02;12.20;74.50
1453;DHT22;720;47.738;7.998;2023-05-29T01:02:40;12.30;75.70
1453;DHT22;720;47.738;7.998;2023-05-29T01:05:13;12.20;73.10
1453;DHT22;720;47.738;7.998;2023-05-29T01:07:41;12.20;71.40
1453;DHT22;720;47.738;7.998;2023-05-29T01:10:08;12.30;73.00
1453;DHT22;720;47.738;7.998;2023-05-29T01:12:57;12.40;72.50
1453;DHT22;720;47.738;7.998;2023-05-29T01:20:50;12.50;72.40
1453;DHT22;720;47.738;7.998;2023-05-29T01:28:49;12.30;75.20
1453;DHT22;720;47.738;7.998;2023-05-29T01:31:19;12.20;75.40
1453;DHT22;720;47.738;7.998;2023-05-29T01:33:53;12.20;76.80
1453;DHT22;720;47.738;7.998;2023-05-29T01:36:19;12.10;77.10
1453;DHT22;720;47.738;7.998;2023-05-29T01:38:45;12.10;78.20
1453;DHT22;720;47.738;7.998;2023-05-29T01:41:11;12.10;76.80
1453;DHT22;720;47.738;7.998;2023-05-29T01:43:37;12.10;76.40
1453;DHT22;720;47.738;7.998;2023-05-29T01:46:03;12.10;76.30
1453;DHT22;720;47.738;7.998;2023-05-29T01:48:29;12.20;76.30
1453;DHT22;720;47.738;7.998;2023-05-29T01:50:56;12.20;77.50
1453;DHT22;720;47.738;7.998;2023-05-29T01:53:23;12.10;78.30
1453;DHT22;720;47.738;7.998;2023-05-29T01:55:49;12.00;79.50
1453;DHT22;720;47.738;7.998;2023-05-29T01:58:16;11.90;80.50
1453;DHT22;720;47.738;7.998;2023-05-29T02:00:43;11.90;79.10
1453;DHT22;720;47.738;7.998;2023-05-29T02:03:08;11.90;78.80
1453;DHT22;720;47.738;7.998;2023-05-29T02:05:34;11.80;79.50
1453;DHT22;720;47.738;7.998;2023-05-29T02:07:59;11.80;80.20
1453;DHT22;720;47.738;7.998;2023-05-29T02:10:25;11.90;81.00
1453;DHT22;720;47.738;7.998;2023-05-29T02:12:51;11.90;80.60
1453;DHT22;720;47.738;7.998;2023-05-29T02:15:17;11.90;81.60
1453;DHT22;720;47.738;7.998;2023-05-29T02:17:42;11.90;81.00
1453;DHT22;720;47.738;7.998;2023-05-29T02:20:10;11.70;81.50
1453;DHT22;720;47.738;7.998;2023-05-29T02:22:36;11.70;81.10
1453;DHT22;720;47.738;7.998;2023-05-29T02:25:02;11.60;83.30
1453;DHT22;720;47.738;7.998;2023-05-29T02:27:27;11.50;84.00
1453;DHT22;720;47.738;7.998;2023-05-29T02:29:53;11.50;84.30
1453;DHT22;720;47.738;7.998;2023-05-29T02:32:19;11.50;85.20
1453;DHT22;720;47.738;7.998;2023-05-29T02:34:44;11.40;86.20
1453;DHT22;720;47.738;7.998;2023-05-29T02:37:10;11.50;84.40
1453;DHT22;720;47.738;7.998;2023-05-29T02:39:36;11.40;84.70
1453;DHT22;720;47.738;7.998;2023-05-29T02:42:02;11.50;85.80
1453;DHT22;720;47.738;7.998;2023-05-29T02:44:27;11.50;85.80
1453;DHT22;720;47.738;7.998;2023-05-29T02:46:53;11.50;85.40
1453;DHT22;720;47.738;7.998;2023-05-29T02:49:18;11.60;85.00
1453;DHT22;720;47.738;7.998;2023-05-29T02:51:44;11.70;83.30
1453;DHT22;720;47.738;7.998;2023-05-29T02:54:10;11.70;85.70
1453;DHT22;720;47.738;7.998;2023-05-29T02:56:37;11.70;85.80
1453;DHT22;720;47.738;7.998;2023-05-29T02:59:03;11.60;85.10
1453;DHT22;720;47.738;7.998;2023-05-29T03:01:28;11.50;87.50
1453;DHT22;720;47.738;7.998;2023-05-29T03:03:54;11.50;88.50
1453;DHT22;720;47.738;7.998;2023-05-29T03:06:21;11.50;88.90
1453;DHT22;720;47.738;7.998;2023-05-29T03:08:47;11.50;89.00
1453;DHT22;720;47.738;7.998;2023-05-29T03:11:13;11.50;88.30
1453;DHT22;720;47.738;7.998;2023-05-29T03:13:40;11.50;90.00
1453;DHT22;720;47.738;7.998;2023-05-29T03:16:06;11.50;90.00
1453;DHT22;720;47.738;7.998;2023-05-29T03:18:33;11.40;90.40
1453;DHT22;720;47.738;7.998;2023-05-29T03:21:00;11.40;90.40
1453;DHT22;720;47.738;7.998;2023-05-29T03:23:25;11.40;90.30
1453;DHT22;720;47.738;7.998;2023-05-29T03:25:51;11.30;90.70
1453;DHT22;720;47.738;7.998;2023-05-29T03:28:17;11.20;90.50
1453;DHT22;720;47.738;7.998;2023-05-29T03:30:42;11.30;91.60
1453;DHT22;720;47.738;7.998;2023-05-29T03:33:08;11.40;91.00
1453;DHT22;720;47.738;7.998;2023-05-29T03:35:33;11.30;91.30
1453;DHT22;720;47.738;7.998;2023-05-29T03:37:59;11.30;90.50
1453;DHT22;720;47.738;7.998;2023-05-29T03:40:25;11.40;90.50
1453;DHT22;720;47.738;7.998;2023-05-29T03:42:51;11.40;91.60
1453;DHT22;720;47.738;7.998;2023-05-29T03:45:16;11.40;90.50
1453;DHT22;720;47.738;7.998;2023-05-29T03:47:42;11.40;89.10
1453;DHT22;720;47.738;7.998;2023-05-29T03:50:08;11.40;89.60
1453;DHT22;720;47.738;7.998;2023-05-29T03:52:34;11.40;89.30
1453;DHT22;720;47.738;7.998;2023-05-29T03:54:59;11.30;89.60
1453;DHT22;720;47.738;7.998;2023-05-29T03:57:25;11.50;90.50
1453;DHT22;720;47.738;7.998;2023-05-29T03:59:52;11.50;90.90
1453;DHT22;720;47.738;7.998;2023-05-29T04:02:18;11.30;91.60
1453;DHT22;720;47.738;7.998;2023-05-29T04:04:43;11.30;91.70
1453;DHT22;720;47.738;7.998;2023-05-29T04:07:09;11.30;91.80
1453;DHT22;720;47.738;7.998;2023-05-29T04:09:34;11.30;92.40
1453;DHT22;720;47.738;7.998;2023-05-29T04:12:00;11.30;92.30
1453;DHT22;720;47.738;7.998;2023-05-29T04:14:28;11.50;92.20
1453;DHT22;720;47.738;7.998;2023-05-29T04:16:54;11.50;91.60
1453;DHT22;720;47.738;7.998;2023-05-29T04:19:19;11.60;91.00
1453;DHT22;720;47.738;7.998;2023-05-29T04:21:46;11.70;90.70
1453;DHT22;720;47.738;7.998;2023-05-29T04:24:16;11.80;90.80
1453;DHT22;720;47.738;7.998;2023-05-29T04:26:41;11.90;91.60
1453;DHT22;720;47.738;7.998;2023-05-29T04:29:08;11.90;91.70
1453;DHT22;720;47.738;7.998;2023-05-29T04:31:34;11.90;92.00
1453;DHT22;720;47.738;7.998;2023-05-29T04:34:02;12.10;92.20
1453;DHT22;720;47.738;7.998;2023-05-29T04:36:30;12.50;92.00
1453;DHT22;720;47.738;7.998;2023-05-29T04:38:58;12.90;91.60
1453;DHT22;720;47.738;7.998;2023-05-29T04:41:24;13.20;90.90
1453;DHT22;720;47.738;7.998;2023-05-29T04:43:55;13.40;90.40
1453;DHT22;720;47.738;7.998;2023-05-29T04:46:22;13.50;88.10
1453;DHT22;720;47.738;7.998;2023-05-29T04:48:48;13.60;88.30
1453;DHT22;720;47.738;7.998;2023-05-29T04:51:18;13.70;88.80
1453;DHT22;720;47.738;7.998;2023-05-29T04:53:45;13.90;87.30
1453;DHT22;720;47.738;7.998;2023-05-29T04:56:12;14.20;85.80
1453;DHT22;720;47.738;7.998;2023-05-29T04:58:38;14.50;84.60
1453;DHT22;720;47.738;7.998;2023-05-29T05:01:04;14.90;83.00
1453;DHT22;720;47.738;7.998;2023-05-29T05:03:30;15.20;83.50
1453;DHT22;720;47.738;7.998;2023-05-29T05:05:59;15.90;82.80
1453;DHT22;720;47.738;7.998;2023-05-29T05:08:25;16.90;80.30
1453;DHT22;720;47.738;7.998;2023-05-29T05:10:51;17.80;77.80
1453;DHT22;720;47.738;7.998;2023-05-29T05:13:16;18.40;75.50
1453;DHT22;720;47.738;7.998;2023-05-29T05:15:42;18.70;73.80
1453;DHT22;720;47.738;7.998;2023-05-29T05:18:08;18.70;70.90
1453;DHT22;720;47.738;7.998;2023-05-29T05:20:33;18.70;70.60
1453;DHT22;720;47.738;7.998;2023-05-29T05:22:59;18.50;71.30
1453;DHT22;720;47.738;7.998;2023-05-29T05:25:25;18.30;70.30
1453;DHT22;720;47.738;7.998;2023-05-29T05:27:51;18.10;71.70
1453;DHT22;720;47.738;7.998;2023-05-29T05:30:16;17.90;70.20
1453;DHT22;720;47.738;7.998;2023-05-29T05:32:42;17.80;70.70
1453;DHT22;720;47.738;7.998;2023-05-29T05:35:07;17.70;70.30
1453;DHT22;720;47.738;7.998;2023-05-29T05:37:35;17.70;69.80
1453;DHT22;720;47.738;7.998;2023-05-29T05:40:01;17.70;71.20
1453;DHT22;720;47.738;7.998;2023-05-29T05:42:26;17.70;69.80
1453;DHT22;720;47.738;7.998;2023-05-29T05:44:52;18.00;70.50
1453;DHT22;720;47.738;7.998;2023-05-29T05:47:18;18.30;70.90
1453;DHT22;720;47.738;7.998;2023-05-29T05:49:43;18.80;69.30
1453;DHT22;720;47.738;7.998;2023-05-29T05:52:09;19.00;67.60
1453;DHT22;720;47.738;7.998;2023-05-29T05:54:35;19.10;64.90
1453;DHT22;720;47.738;7.998;2023-05-29T05:57:00;19.20;66.00
1453;DHT22;720;47.738;7.998;2023-05-29T05:59:26;19.30;64.10
1453;DHT22;720;47.738;7.998;2023-05-29T06:01:51;19.60;60.90
1453;DHT22;720;47.738;7.998;2023-05-29T06:04:17;19.60;58.40
1453;DHT22;720;47.738;7.998;2023-05-29T06:06:44;19.60;58.30
1453;DHT22;720;47.738;7.998;2023-05-29T06:09:10;19.80;58.70
1453;DHT22;720;47.738;7.998;2023-05-29T06:11:37;20.10;60.60
1453;DHT22;720;47.738;7.998;2023-05-29T06:14:03;21.00;58.50
1453;DHT22;720;47.738;7.998;2023-05-29T06:16:29;22.40;54.70
1453;DHT22;720;47.738;7.998;2023-05-29T06:18:55;24.30;53.50
1453;DHT22;720;47.738;7.998;2023-05-29T06:21:21;26.30;49.80
1453;DHT22;720;47.738;7.998;2023-05-29T06:23:47;28.20;44.50
1453;DHT22;720;47.738;7.998;2023-05-29T06:26:12;29.40;43.20
1453;DHT22;720;47.738;7.998;2023-05-29T06:28:38;30.60;39.80
1453;DHT22;720;47.738;7.998;2023-05-29T06:31:04;30.80;36.20
1453;DHT22;720;47.738;7.998;2023-05-29T06:33:29;31.00;35.30
1453;DHT22;720;47.738;7.998;2023-05-29T06:35:55;30.50;35.00
1453;DHT22;720;47.738;7.998;2023-05-29T06:38:21;29.70;36.30
1453;DHT22;720;47.738;7.998;2023-05-29T06:40:47;29.90;35.80
1453;DHT22;720;47.738;7.998;2023-05-29T06:43:12;30.00;37.30
1453;DHT22;720;47.738;7.998;2023-05-29T06:45:38;29.90;34.30
1453;DHT22;720;47.738;7.998;2023-05-29T06:48:04;27.80;37.40
1453;DHT22;720;47.738;7.998;2023-05-29T06:50:29;26.90;39.50
1453;DHT22;720;47.738;7.998;2023-05-29T06:52:55;26.40;40.90
1453;DHT22;720;47.738;7.998;2023-05-29T06:55:21;26.80;39.40
1453;DHT22;720;47.738;7.998;2023-05-29T06:57:46;26.80;39.50
1453;DHT22;720;47.738;7.998;2023-05-29T07:00:12;27.40;39.30
1453;DHT22;720;47.738;7.998;2023-05-29T07:02:38;26.80;38.40
1453;DHT22;720;47.738;7.998;2023-05-29T07:05:04;26.10;39.40
1453;DHT22;720;47.738;7.998;2023-05-29T07:07:30;25.20;39.40
1453;DHT22;720;47.738;7.998;2023-05-29T07:09:55;25.00;40.80
1453;DHT22;720;47.738;7.998;2023-05-29T07:12:24;25.20;41.50
1453;DHT22;720;47.738;7.998;2023-05-29T07:14:50;25.80;41.30
1453;DHT22;720;47.738;7.998;2023-05-29T07:17:15;26.00;39.60
1453;DHT22;720;47.738;7.998;2023-05-29T07:19:41;25.70;41.90
1453;DHT22;720;47.738;7.998;2023-05-29T07:22:07;25.40;40.90
1453;DHT22;720;47.738;7.998;2023-05-29T07:24:32;24.90;41.20
1453;DHT22;720;47.738;7.998;2023-05-29T07:26:58;24.60;40.40
1453;DHT22;720;47.738;7.998;2023-05-29T07:29:24;24.70;40.30
1453;DHT22;720;47.738;7.998;2023-05-29T07:31:51;24.50;40.00
1453;DHT22;720;47.738;7.998;2023-05-29T07:34:17;24.50;41.40
1453;DHT22;720;47.738;7.998;2023-05-29T07:37:15;25.10;39.80
1453;DHT22;720;47.738;7.998;2023-05-29T07:39:41;25.50;38.90
1453;DHT22;720;47.738;7.998;2023-05-29T07:42:08;25.70;39.40
1453;DHT22;720;47.738;7.998;2023-05-29T07:44:33;26.00;38.50
1453;DHT22;720;47.738;7.998;2023-05-29T07:46:59;25.90;39.40
1453;DHT22;720;47.738;7.998;2023-05-29T07:49:25;26.70;39.50
1453;DHT22;720;47.738;7.998;2023-05-29T07:51:51;27.50;38.50
1453;DHT22;720;47.738;7.998;2023-05-29T07:54:17;28.60;35.80
1453;DHT22;720;47.738;7.998;2023-05-29T07:56:46;29.40;34.20
1453;DHT22;720;47.738;7.998;2023-05-29T07:59:11;30.10;33.10
1453;DHT22;720;47.738;7.998;2023-05-29T08:01:37;30.80;34.30
1453;DHT22;720;47.738;7.998;2023-05-29T08:04:04;31.50;31.80
1453;DHT22;720;47.738;7.998;2023-05-29T08:06:30;31.10;32.80
1453;DHT22;720;47.738;7.998;2023-05-29T08:08:57;29.90;32.20
1453;DHT22;720;47.738;7.998;2023-05-29T08:11:23;28.40;34.70
1453;DHT22;720;47.738;7.998;2023-05-29T08:13:49;28.30;35.10
1453;DHT22;720;47.738;7.998;2023-05-29T08:16:14;28.50;35.60
1453;DHT22;720;47.738;7.998;2023-05-29T08:18:42;27.80;35.80
1453;DHT22;720;47.738;7.998;2023-05-29T08:21:08;27.50;35.20
1453;DHT22;720;47.738;7.998;2023-05-29T08:23:34;27.40;34.50
1453;DHT22;720;47.738;7.998;2023-05-29T08:26:01;28.10;34.60
1453;DHT22;720;47.738;7.998;2023-05-29T08:28:28;29.50;34.50
1453;DHT22;720;47.738;7.998;2023-05-29T08:30:54;31.10;34.40
1453;DHT22;720;47.738;7.998;2023-05-29T08:33:19;32.60;32.40
1453;DHT22;720;47.738;7.998;2023-05-29T08:35:45;33.20;31.10
1453;DHT22;720;47.738;7.998;2023-05-29T08:38:11;33.20;29.30
1453;DHT22;720;47.738;7.998;2023-05-29T08:40:36;32.20;30.00
1453;DHT22;720;47.738;7.998;2023-05-29T08:45:33;33.80;32.40
1453;DHT22;720;47.738;7.998;2023-05-29T08:48:00;34.40;28.70
1453;DHT22;720;47.738;7.998;2023-05-29T08:50:26;34.20;28.60
1453;DHT22;720;47.738;7.998;2023-05-29T08:52:52;33.20;29.20
1453;DHT22;720;47.738;7.998;2023-05-29T08:55:18;33.20;29.80
1453;DHT22;720;47.738;7.998;2023-05-29T08:57:43;33.20;28.50
1453;DHT22;720;47.738;7.998;2023-05-29T09:00:11;32.60;28.30
1453;DHT22;720;47.738;7.998;2023-05-29T09:02:44;31.80;30.50
1453;DHT22;720;47.738;7.998;2023-05-29T09:05:09;31.80;30.80
1453;DHT22;720;47.738;7.998;2023-05-29T09:07:36;31.80;30.30
1453;DHT22;720;47.738;7.998;2023-05-29T09:10:08;31.40;31.00
1453;DHT22;720;47.738;7.998;2023-05-29T09:12:35;31.50;31.60
1453;DHT22;720;47.738;7.998;2023-05-29T09:15:01;32.30;30.60
1453;DHT22;720;47.738;7.998;2023-05-29T09:17:33;32.40;30.00
1453;DHT22;720;47.738;7.998;2023-05-29T09:19:59;32.50;32.90
1453;DHT22;720;47.738;7.998;2023-05-29T09:22:25;33.00;31.00
1453;DHT22;720;47.738;7.998;2023-05-29T09:24:51;33.40;30.00
1453;DHT22;720;47.738;7.998;2023-05-29T09:27:18;33.50;29.60
1453;DHT22;720;47.738;7.998;2023-05-29T09:29:45;33.20;28.60
1453;DHT22;720;47.738;7.998;2023-05-29T09:32:16;33.20;30.30
1453;DHT22;720;47.738;7.998;2023-05-29T09:34:43;33.50;29.50
1453;DHT22;720;47.738;7.998;2023-05-29T09:37:10;33.60;30.60
1453;DHT22;720;47.738;7.998;2023-05-29T09:42:11;33.50;28.90
1453;DHT22;720;47.738;7.998;2023-05-29T09:44:37;32.70;29.90
1453;DHT22;720;47.738;7.998;2023-05-29T09:47:03;32.20;29.50
1453;DHT22;720;47.738;7.998;2023-05-29T09:49:31;32.30;31.40
1453;DHT22;720;47.738;7.998;2023-05-29T09:51:58;32.20;32.20
1453;DHT22;720;47.738;7.998;2023-05-29T09:54:27;32.30;30.00
1453;DHT22;720;47.738;7.998;2023-05-29T09:56:58;32.50;29.90
1453;DHT22;720;47.738;7.998;2023-05-29T09:59:24;32.50;30.00
1453;DHT22;720;47.738;7.998;2023-05-29T10:02:00;32.20;30.00
1453;DHT22;720;47.738;7.998;2023-05-29T10:04:26;32.20;30.60
1453;DHT22;720;47.738;7.998;2023-05-29T10:06:53;32.20;30.00
1453;DHT22;720;47.738;7.998;2023-05-29T10:09:23;32.20;31.10
1453;DHT22;720;47.738;7.998;2023-05-29T10:11:50;31.90;28.90
1453;DHT22;720;47.738;7.998;2023-05-29T10:14:19;30.90;30.00
1453;DHT22;720;47.738;7.998;2023-05-29T10:16:47;30.20;32.00
1453;DHT22;720;47.738;7.998;2023-05-29T10:19:21;30.20;33.90
1453;DHT22;720;47.738;7.998;2023-05-29T10:21:49;30.10;31.30
1453;DHT22;720;47.738;7.998;2023-05-29T10:24:17;30.00;32.70
1453;DHT22;720;47.738;7.998;2023-05-29T10:26:47;30.00;31.60
1453;DHT22;720;47.738;7.998;2023-05-29T10:31:54;30.30;34.10
1453;DHT22;720;47.738;7.998;2023-05-29T10:34:39;30.80;33.70
1453;DHT22;720;47.738;7.998;2023-05-29T10:37:22;31.10;34.30
1453;DHT22;720;47.738;7.998;2023-05-29T10:39:51;31.40;33.00
1453;DHT22;720;47.738;7.998;2023-05-29T10:43:08;31.20;30.40
1453;DHT22;720;47.738;7.998;2023-05-29T10:48:35;30.50;31.60
1453;DHT22;720;47.738;7.998;2023-05-29T10:51:05;30.00;31.60
1453;DHT22;720;47.738;7.998;2023-05-29T10:53:32;29.10;32.40
1453;DHT22;720;47.738;7.998;2023-05-29T10:56:01;28.50;32.90
1453;DHT22;720;47.738;7.998;2023-05-29T10:58:27;28.00;32.60
1453;DHT22;720;47.738;7.998;2023-05-29T11:00:54;27.70;33.00
1453;DHT22;720;47.738;7.998;2023-05-29T11:03:22;27.60;34.00
1453;DHT22;720;47.738;7.998;2023-05-29T11:06:01;27.30;36.20
1453;DHT22;720;47.738;7.998;2023-05-29T11:08:46;26.90;35.10
1453;DHT22;720;47.738;7.998;2023-05-29T11:11:15;26.90;35.40
1453;DHT22;720;47.738;7.998;2023-05-29T11:13:51;27.00;35.60
1453;DHT22;720;47.738;7.998;2023-05-29T11:18:55;27.30;33.30
1453;DHT22;720;47.738;7.998;2023-05-29T11:21:33;27.00;32.00
1453;DHT22;720;47.738;7.998;2023-05-29T11:24:02;26.50;32.70
1453;DHT22;720;47.738;7.998;2023-05-29T11:26:29;26.20;33.10
1453;DHT22;720;47.738;7.998;2023-05-29T11:29:03;26.10;35.20
1453;DHT22;720;47.738;7.998;2023-05-29T11:31:32;26.20;34.80
1453;DHT22;720;47.738;7.998;2023-05-29T11:34:01;26.10;35.60
1453;DHT22;720;47.738;7.998;2023-05-29T11:36:30;26.00;36.30
1453;DHT22;720;47.738;7.998;2023-05-29T11:38:56;26.10;35.80
1453;DHT22;720;47.738;7.998;2023-05-29T11:41:22;26.30;35.00
1453;DHT22;720;47.738;7.998;2023-05-29T11:43:58;26.00;34.10
1453;DHT22;720;47.738;7.998;2023-05-29T11:46:24;25.70;34.60
1453;DHT22;720;47.738;7.998;2023-05-29T11:48:51;25.60;34.80
1453;DHT22;720;47.738;7.998;2023-05-29T11:51:17;25.50;35.30
1453;DHT22;720;47.738;7.998;2023-05-29T11:53:43;25.40;34.70
1453;DHT22;720;47.738;7.998;2023-05-29T11:56:11;25.40;37.00
1453;DHT22;720;47.738;7.998;2023-05-29T11:58:38;25.40;39.10
1453;DHT22;720;47.738;7.998;2023-05-29T12:01:05;25.20;40.00
1453;DHT22;720;47.738;7.998;2023-05-29T12:03:41;25.20;37.00
1453;DHT22;720;47.738;7.998;2023-05-29T12:06:08;25.30;36.40
1453;DHT22;720;47.738;7.998;2023-05-29T12:08:34;25.30;36.40
1453;DHT22;720;47.738;7.998;2023-05-29T12:11:00;25.00;36.20
1453;DHT22;720;47.738;7.998;2023-05-29T12:13:26;24.90;34.70
1453;DHT22;720;47.738;7.998;2023-05-29T12:15:54;24.90;34.80
1453;DHT22;720;47.738;7.998;2023-05-29T12:18:20;24.80;34.90
1453;DHT22;720;47.738;7.998;2023-05-29T12:20:46;24.80;34.10
1453;DHT22;720;47.738;7.998;2023-05-29T12:23:12;24.90;37.40
1453;DHT22;720;47.738;7.998;2023-05-29T12:25:38;24.80;34.60
1453;DHT22;720;47.738;7.998;2023-05-29T12:28:04;24.80;34.50
1453;DHT22;720;47.738;7.998;2023-05-29T12:30:30;24.80;35.70
1453;DHT22;720;47.738;7.998;2023-05-29T12:32:56;24.80;36.50
1453;DHT22;720;47.738;7.998;2023-05-29T12:35:24;24.90;38.00
1453;DHT22;720;47.738;7.998;2023-05-29T12:38:00;25.00;37.00
1453;DHT22;720;47.738;7.998;2023-05-29T12:40:28;25.00;34.70
1453;DHT22;720;47.738;7.998;2023-05-29T12:42:56;24.90;34.90
1453;DHT22;720;47.738;7.998;2023-05-29T12:45:30;24.80;38.80
1453;DHT22;720;47.738;7.998;2023-05-29T12:48:02;24.80;36.10
1453;DHT22;720;47.738;7.998;2023-05-29T12:50:30;24.80;35.20
1453;DHT22;720;47.738;7.998;2023-05-29T12:55:28;24.90;35.60
1453;DHT22;720;47.738;7.998;2023-05-29T12:57:55;24.90;32.30
1453;DHT22;720;47.738;7.998;2023-05-29T13:00:22;24.90;33.10
1453;DHT22;720;47.738;7.998;2023-05-29T13:02:48;24.50;32.70
1453;DHT22;720;47.738;7.998;2023-05-29T13:05:15;24.40;36.00
1453;DHT22;720;47.738;7.998;2023-05-29T13:07:42;24.70;35.70
1453;DHT22;720;47.738;7.998;2023-05-29T13:10:08;24.80;35.40
1453;DHT22;720;47.738;7.998;2023-05-29T13:12:34;24.80;35.20
1453;DHT22;720;47.738;7.998;2023-05-29T13:15:00;24.80;34.20
1453;DHT22;720;47.738;7.998;2023-05-29T13:17:26;24.80;33.20
1453;DHT22;720;47.738;7.998;2023-05-29T13:19:51;24.70;33.50
1453;DHT22;720;47.738;7.998;2023-05-29T13:22:17;24.70;34.90
1453;DHT22;720;47.738;7.998;2023-05-29T13:24:42;24.70;32.70
1453;DHT22;720;47.738;7.998;2023-05-29T13:27:08;24.60;33.30
1453;DHT22;720;47.738;7.998;2023-05-29T13:29:34;24.60;39.00
1453;DHT22;720;47.738;7.998;2023-05-29T13:32:00;24.60;35.40
1453;DHT22;720;47.738;7.998;2023-05-29T13:34:26;24.40;34.40
1453;DHT22;720;47.738;7.998;2023-05-29T13:36:54;24.20;35.80
1453;DHT22;720;47.738;7.998;2023-05-29T13:39:20;24.00;32.50
1453;DHT22;720;47.738;7.998;2023-05-29T13:41:46;23.90;33.40
1453;DHT22;720;47.738;7.998;2023-05-29T13:44:12;23.70;35.60
1453;DHT22;720;47.738;7.998;2023-05-29T13:46:37;23.10;33.60
1453;DHT22;720;47.738;7.998;2023-05-29T13:49:03;23.30;33.90
1453;DHT22;720;47.738;7.998;2023-05-29T13:51:28;23.50;36.40
1453;DHT22;720;47.738;7.998;2023-05-29T13:53:54;23.70;33.00
1453;DHT22;720;47.738;7.998;2023-05-29T13:56:20;23.90;33.70
1453;DHT22;720;47.738;7.998;2023-05-29T13:58:45;24.00;33.70
1453;DHT22;720;47.738;7.998;2023-05-29T14:01:11;24.00;32.30
1453;DHT22;720;47.738;7.998;2023-05-29T14:03:37;23.90;32.40
1453;DHT22;720;47.738;7.998;2023-05-29T14:06:04;23.80;35.20
1453;DHT22;720;47.738;7.998;2023-05-29T14:08:31;23.80;35.40
1453;DHT22;720;47.738;7.998;2023-05-29T14:10:56;23.80;34.40
1453;DHT22;720;47.738;7.998;2023-05-29T14:13:22;23.80;37.20
1453;DHT22;720;47.738;7.998;2023-05-29T14:15:47;23.80;34.00
1453;DHT22;720;47.738;7.998;2023-05-29T14:18:15;23.70;35.20
1453;DHT22;720;47.738;7.998;2023-05-29T14:20:41;23.70;34.90
1453;DHT22;720;47.738;7.998;2023-05-29T14:23:06;23.70;37.20
1453;DHT22;720;47.738;7.998;2023-05-29T14:25:34;23.70;36.40
1453;DHT22;720;47.738;7.998;2023-05-29T14:28:00;23.70;36.80
1453;DHT22;720;47.738;7.998;2023-05-29T14:30:25;23.70;38.60
1453;DHT22;720;47.738;7.998;2023-05-29T14:32:51;23.70;38.40
1453;DHT22;720;47.738;7.998;2023-05-29T14:35:17;23.70;36.60
1453;DHT22;720;47.738;7.998;2023-05-29T14:37:42;23.60;39.80
1453;DHT22;720;47.738;7.998;2023-05-29T14:40:09;23.60;37.90
1453;DHT22;720;47.738;7.998;2023-05-29T14:42:35;23.40;37.80
1453;DHT22;720;47.738;7.998;2023-05-29T14:45:01;23.30;38.60
1453;DHT22;720;47.738;7.998;2023-05-29T14:47:27;23.20;37.70
1453;DHT22;720;47.738;7.998;2023-05-29T14:49:52;23.10;35.80
1453;DHT22;720;47.738;7.998;2023-05-29T14:52:18;23.20;36.90
1453;DHT22;720;47.738;7.998;2023-05-29T14:54:43;23.20;36.60
1453;DHT22;720;47.738;7.998;2023-05-29T14:57:09;23.30;36.60
1453;DHT22;720;47.738;7.998;2023-05-29T14:59:34;23.30;36.30
1453;DHT22;720;47.738;7.998;2023-05-29T15:02:00;23.20;38.10
1453;DHT22;720;47.738;7.998;2023-05-29T15:04:26;23.20;35.70
1453;DHT22;720;47.738;7.998;2023-05-29T15:06:52;23.20;37.40
1453;DHT22;720;47.738;7.998;2023-05-29T15:09:19;23.20;38.60
1453;DHT22;720;47.738;7.998;2023-05-29T15:11:46;23.20;38.00
1453;DHT22;720;47.738;7.998;2023-05-29T15:14:12;23.00;37.20
1453;DHT22;720;47.738;7.998;2023-05-29T15:16:38;22.70;38.30
1453;DHT22;720;47.738;7.998;2023-05-29T15:19:03;22.80;36.90
1453;DHT22;720;47.738;7.998;2023-05-29T15:21:30;22.80;37.10
1453;DHT22;720;47.738;7.998;2023-05-29T15:23:56;22.70;36.70
1453;DHT22;720;47.738;7.998;2023-05-29T15:26:21;22.80;37.90
1453;DHT22;720;47.738;7.998;2023-05-29T15:28:47;22.70;38.10
1453;DHT22;720;47.738;7.998;2023-05-29T15:31:13;22.80;38.90
1453;DHT22;720;47.738;7.998;2023-05-29T15:33:39;22.70;38.30
1453;DHT22;720;47.738;7.998;2023-05-29T15:36:05;22.80;39.00
1453;DHT22;720;47.738;7.998;2023-05-29T15:38:31;22.60;38.40
1453;DHT22;720;47.738;7.998;2023-05-29T15:40:58;22.40;39.50
1453;DHT22;720;47.738;7.998;2023-05-29T15:43:23;22.30;40.70
1453;DHT22;720;47.738;7.998;2023-05-29T15:45:50;22.20;41.10
1453;DHT22;720;47.738;7.998;2023-05-29T15:48:16;22.20;41.40
1453;DHT22;720;47.738;7.998;2023-05-29T15:50:42;22.20;41.20
1453;DHT22;720;47.738;7.998;2023-05-29T15:53:08;22.30;41.10
1453;DHT22;720;47.738;7.998;2023-05-29T15:55:33;22.20;40.30
1453;DHT22;720;47.738;7.998;2023-05-29T15:57:59;22.20;42.30
1453;DHT22;720;47.738;7.998;2023-05-29T16:00:25;22.10;44.50
1453;DHT22;720;47.738;7.998;2023-05-29T16:02:50;22.10;43.50
1453;DHT22;720;47.738;7.998;2023-05-29T16:05:16;22.10;44.90
1453;DHT22;720;47.738;7.998;2023-05-29T16:07:43;22.20;44.60
1453;DHT22;720;47.738;7.998;2023-05-29T16:10:13;22.20;44.10
1453;DHT22;720;47.738;7.998;2023-05-29T16:12:42;22.20;44.60
1453;DHT22;720;47.738;7.998;2023-05-29T16:15:08;22.20;45.20
1453;DHT22;720;47.738;7.998;2023-05-29T16:17:34;22.10;45.80
1453;DHT22;720;47.738;7.998;2023-05-29T16:19:59;22.00;45.00
1453;DHT22;720;47.738;7.998;2023-05-29T16:22:25;21.90;45.20
1453;DHT22;720;47.738;7.998;2023-05-29T16:24:51;21.80;46.80
1453;DHT22;720;47.738;7.998;2023-05-29T16:27:18;21.70;45.80
1453;DHT22;720;47.738;7.998;2023-05-29T16:29:43;21.70;44.30
1453;DHT22;720;47.738;7.998;2023-05-29T16:32:10;21.70;44.90
1453;DHT22;720;47.738;7.998;2023-05-29T16:34:36;21.70;45.00
1453;DHT22;720;47.738;7.998;2023-05-29T16:37:01;21.60;44.40
1453;DHT22;720;47.738;7.998;2023-05-29T16:39:27;21.60;44.30
1453;DHT22;720;47.738;7.998;2023-05-29T16:41:56;21.60;43.90